Airfield :
LOGIN :

Register | Disclaimer

   EN    FR    IT 

 










Legend :    VFR   Marginal VFR   IFR   Intensive IFR   Very Intensive IFR
Visi :
Ceiling :
>= 8 km
>= 3000ft
5 to 8 km
1000 to 3000 ft
1500m to 5 km
500 to 1000 ft
800 to 1500m
200 to 500 ft
< 800m
< 200 ft
Symbols :   Thunderstorms  Fog  Heavy snow  Heavy precipitations  Wind > 20 kt
SIGMETs :     Misc.  Thunderstorms  Icing  Turbulence  Mountain Waves  Volcanic Ashes







- Airport Elevation : 392 ft
- IATA code : CDG
- Download approach charts


LFPG - Paris-Aeroport Charles De Gaulle

CURRENT METAR :
  • 160700Z 15006KT CAVOK 02/M00 Q1014 NOSIG

EXPIRED METARs :
  • 160630Z 16007KT CAVOK 02/M00 Q1014 NOSIG
  • 160600Z 16006KT CAVOK 03/00 Q1015 NOSIG
  • 160530Z 16007KT CAVOK 03/00 Q1015 NOSIG
  • 160500Z 17004KT CAVOK 03/00 Q1015 NOSIG
  • 160430Z 17005KT CAVOK 03/01 Q1016 NOSIG

TAF AMD TAF LFPG
Valid from the 16 at 06:00 until the 17 at 12:00 UTC


160529Z 1606/1712 18005KT CAVOK TX07/1614Z TN03/1606Z
TEMPO 1619/1624 BKN012
PROB40
TEMPO 1621/1624 4000 -RA BKN008
BECMG 1700/1703 24010KT
PROB30
TEMPO 1709/1712 25015G25KT SCT015TCU
ATIS : +33 1 48 62 10 92
No reported NOTAMs for that airfield.



MET'MAP, your aeronautical weather chart ! - Copyright ORBIFLY December 2007 - Disclaimer

ORBIFLY MET'MAP TEAM :

Programming & Development : Alexandra Zaïnal
Concept & Development : Baudouin d'Aumeries
Co-Development & Prog : Marc-Olivier Méhu
Technical & hardware support : Manuel Goepfert

Contact : metmap@orbifly.com




SOURCES & CREDITS :

   NOAA